sensor_id;sensor_type;location;lat;lon;timestamp;P1;durP1;ratioP1;P2;durP2;ratioP2
60416;SDS011;46263;44.726;10.396;2023-02-17T00:01:13;13.30;;;8.88;;
60416;SDS011;46263;44.726;10.396;2023-02-17T00:03:42;12.77;;;8.27;;
60416;SDS011;46263;44.726;10.396;2023-02-17T00:06:08;12.80;;;8.48;;
60416;SDS011;46263;44.726;10.396;2023-02-17T00:08:35;12.82;;;8.10;;
60416;SDS011;46263;44.726;10.396;2023-02-17T00:11:01;14.20;;;8.48;;
60416;SDS011;46263;44.726;10.396;2023-02-17T00:13:27;13.73;;;9.30;;
60416;SDS011;46263;44.726;10.396;2023-02-17T00:15:53;16.52;;;10.23;;
60416;SDS011;46263;44.726;10.396;2023-02-17T00:18:19;14.75;;;9.65;;
60416;SDS011;46263;44.726;10.396;2023-02-17T00:20:45;15.52;;;10.00;;
60416;SDS011;46263;44.726;10.396;2023-02-17T00:23:10;15.40;;;10.07;;
60416;SDS011;46263;44.726;10.396;2023-02-17T00:25:36;20.02;;;10.95;;
60416;SDS011;46263;44.726;10.396;2023-02-17T00:28:03;15.02;;;10.52;;
60416;SDS011;46263;44.726;10.396;2023-02-17T00:30:29;16.85;;;11.43;;
60416;SDS011;46263;44.726;10.396;2023-02-17T00:32:54;16.38;;;9.90;;
60416;SDS011;46263;44.726;10.396;2023-02-17T00:35:20;13.23;;;9.15;;
60416;SDS011;46263;44.726;10.396;2023-02-17T00:37:45;12.90;;;8.90;;
60416;SDS011;46263;44.726;10.396;2023-02-17T00:40:11;13.43;;;9.15;;
60416;SDS011;46263;44.726;10.396;2023-02-17T00:42:40;11.63;;;8.68;;
60416;SDS011;46263;44.726;10.396;2023-02-17T00:45:06;13.55;;;8.98;;
60416;SDS011;46263;44.726;10.396;2023-02-17T00:47:32;12.75;;;8.80;;
60416;SDS011;46263;44.726;10.396;2023-02-17T00:49:58;11.85;;;8.23;;
60416;SDS011;46263;44.726;10.396;2023-02-17T00:52:23;12.38;;;8.63;;
60416;SDS011;46263;44.726;10.396;2023-02-17T00:54:49;12.35;;;8.30;;
60416;SDS011;46263;44.726;10.396;2023-02-17T00:57:15;10.20;;;7.88;;
60416;SDS011;46263;44.726;10.396;2023-02-17T00:59:40;11.05;;;7.95;;
60416;SDS011;46263;44.726;10.396;2023-02-17T01:02:06;14.30;;;8.80;;
60416;SDS011;46263;44.726;10.396;2023-02-17T01:04:32;15.90;;;8.60;;
60416;SDS011;46263;44.726;10.396;2023-02-17T01:06:57;13.82;;;8.57;;
60416;SDS011;46263;44.726;10.396;2023-02-17T01:09:23;13.43;;;8.55;;
60416;SDS011;46263;44.726;10.396;2023-02-17T01:11:49;13.65;;;8.55;;
60416;SDS011;46263;44.726;10.396;2023-02-17T01:14:14;12.48;;;8.35;;
60416;SDS011;46263;44.726;10.396;2023-02-17T01:16:42;13.23;;;8.50;;
60416;SDS011;46263;44.726;10.396;2023-02-17T01:19:11;13.80;;;8.60;;
60416;SDS011;46263;44.726;10.396;2023-02-17T01:21:39;13.18;;;8.40;;
60416;SDS011;46263;44.726;10.396;2023-02-17T01:24:06;12.63;;;8.23;;
60416;SDS011;46263;44.726;10.396;2023-02-17T01:26:32;14.52;;;8.75;;
60416;SDS011;46263;44.726;10.396;2023-02-17T01:28:59;11.88;;;8.25;;
60416;SDS011;46263;44.726;10.396;2023-02-17T01:31:25;12.18;;;8.30;;
60416;SDS011;46263;44.726;10.396;2023-02-17T01:33:55;12.95;;;8.65;;
60416;SDS011;46263;44.726;10.396;2023-02-17T01:36:22;14.10;;;8.35;;
60416;SDS011;46263;44.726;10.396;2023-02-17T01:38:48;13.70;;;7.93;;
60416;SDS011;46263;44.726;10.396;2023-02-17T01:41:15;12.38;;;8.27;;
60416;SDS011;46263;44.726;10.396;2023-02-17T01:43:42;11.02;;;8.02;;
60416;SDS011;46263;44.726;10.396;2023-02-17T01:46:40;11.57;;;7.63;;
60416;SDS011;46263;44.726;10.396;2023-02-17T01:49:11;14.13;;;8.75;;
60416;SDS011;46263;44.726;10.396;2023-02-17T01:52:21;13.32;;;9.50;;
60416;SDS011;46263;44.726;10.396;2023-02-17T01:54:50;17.98;;;10.15;;
60416;SDS011;46263;44.726;10.396;2023-02-17T01:57:21;15.48;;;9.18;;
60416;SDS011;46263;44.726;10.396;2023-02-17T01:59:50;15.55;;;9.75;;
60416;SDS011;46263;44.726;10.396;2023-02-17T02:02:16;19.10;;;11.38;;
60416;SDS011;46263;44.726;10.396;2023-02-17T02:04:43;24.27;;;13.70;;
60416;SDS011;46263;44.726;10.396;2023-02-17T02:07:19;16.52;;;11.23;;
60416;SDS011;46263;44.726;10.396;2023-02-17T02:09:51;23.17;;;13.00;;
60416;SDS011;46263;44.726;10.396;2023-02-17T02:12:21;24.48;;;13.70;;
60416;SDS011;46263;44.726;10.396;2023-02-17T02:14:51;24.10;;;14.68;;
60416;SDS011;46263;44.726;10.396;2023-02-17T02:22:48;24.75;;;14.57;;
60416;SDS011;46263;44.726;10.396;2023-02-17T02:33:40;26.63;;;16.08;;
60416;SDS011;46263;44.726;10.396;2023-02-17T02:39:16;28.40;;;16.25;;
60416;SDS011;46263;44.726;10.396;2023-02-17T02:41:48;27.08;;;16.00;;
60416;SDS011;46263;44.726;10.396;2023-02-17T02:44:18;31.92;;;17.80;;
60416;SDS011;46263;44.726;10.396;2023-02-17T02:46:55;27.35;;;16.48;;
60416;SDS011;46263;44.726;10.396;2023-02-17T02:49:32;27.83;;;16.95;;
60416;SDS011;46263;44.726;10.396;2023-02-17T02:54:55;30.27;;;17.98;;
60416;SDS011;46263;44.726;10.396;2023-02-17T03:03:16;32.33;;;17.73;;
60416;SDS011;46263;44.726;10.396;2023-02-17T03:06:02;29.65;;;17.95;;
60416;SDS011;46263;44.726;10.396;2023-02-17T03:10:57;30.20;;;17.40;;
60416;SDS011;46263;44.726;10.396;2023-02-17T03:13:24;29.98;;;17.95;;
60416;SDS011;46263;44.726;10.396;2023-02-17T03:15:50;31.23;;;18.40;;
60416;SDS011;46263;44.726;10.396;2023-02-17T03:18:16;30.05;;;17.10;;
60416;SDS011;46263;44.726;10.396;2023-02-17T03:20:48;30.48;;;16.45;;
60416;SDS011;46263;44.726;10.396;2023-02-17T03:23:20;26.38;;;15.60;;
60416;SDS011;46263;44.726;10.396;2023-02-17T03:25:46;25.08;;;14.85;;
60416;SDS011;46263;44.726;10.396;2023-02-17T03:28:12;22.23;;;14.57;;
60416;SDS011;46263;44.726;10.396;2023-02-17T03:30:38;22.20;;;13.65;;
60416;SDS011;46263;44.726;10.396;2023-02-17T03:33:04;20.85;;;12.65;;
60416;SDS011;46263;44.726;10.396;2023-02-17T03:35:30;21.52;;;11.55;;
60416;SDS011;46263;44.726;10.396;2023-02-17T03:37:56;20.42;;;12.35;;
60416;SDS011;46263;44.726;10.396;2023-02-17T03:40:21;17.77;;;11.73;;
60416;SDS011;46263;44.726;10.396;2023-02-17T03:42:47;17.45;;;11.73;;
60416;SDS011;46263;44.726;10.396;2023-02-17T03:45:12;18.23;;;10.38;;
60416;SDS011;46263;44.726;10.396;2023-02-17T03:47:38;18.92;;;11.40;;
60416;SDS011;46263;44.726;10.396;2023-02-17T03:50:04;18.73;;;10.70;;
60416;SDS011;46263;44.726;10.396;2023-02-17T03:52:30;16.70;;;10.18;;
60416;SDS011;46263;44.726;10.396;2023-02-17T03:54:56;16.77;;;9.77;;
60416;SDS011;46263;44.726;10.396;2023-02-17T03:57:21;16.50;;;10.32;;
60416;SDS011;46263;44.726;10.396;2023-02-17T03:59:47;15.25;;;9.85;;
60416;SDS011;46263;44.726;10.396;2023-02-17T04:02:12;15.90;;;10.05;;
60416;SDS011;46263;44.726;10.396;2023-02-17T04:04:38;14.45;;;8.82;;
60416;SDS011;46263;44.726;10.396;2023-02-17T04:07:04;17.10;;;9.45;;
60416;SDS011;46263;44.726;10.396;2023-02-17T04:09:29;15.05;;;9.35;;
60416;SDS011;46263;44.726;10.396;2023-02-17T04:11:55;16.50;;;9.38;;
60416;SDS011;46263;44.726;10.396;2023-02-17T04:14:21;13.35;;;9.10;;
60416;SDS011;46263;44.726;10.396;2023-02-17T04:16:46;16.05;;;9.65;;
60416;SDS011;46263;44.726;10.396;2023-02-17T04:19:12;14.63;;;9.38;;
60416;SDS011;46263;44.726;10.396;2023-02-17T04:21:37;16.30;;;10.20;;
60416;SDS011;46263;44.726;10.396;2023-02-17T04:24:03;16.40;;;10.63;;
60416;SDS011;46263;44.726;10.396;2023-02-17T04:26:29;14.15;;;10.30;;
60416;SDS011;46263;44.726;10.396;2023-02-17T04:28:55;14.43;;;9.98;;
60416;SDS011;46263;44.726;10.396;2023-02-17T04:31:21;16.23;;;10.23;;
60416;SDS011;46263;44.726;10.396;2023-02-17T04:33:47;14.43;;;9.85;;
60416;SDS011;46263;44.726;10.396;2023-02-17T04:36:12;15.95;;;9.48;;
60416;SDS011;46263;44.726;10.396;2023-02-17T04:38:38;14.15;;;9.38;;
60416;SDS011;46263;44.726;10.396;2023-02-17T04:41:04;16.77;;;10.20;;
60416;SDS011;46263;44.726;10.396;2023-02-17T04:43:31;15.05;;;10.15;;
60416;SDS011;46263;44.726;10.396;2023-02-17T04:45:56;14.07;;;8.77;;
60416;SDS011;46263;44.726;10.396;2023-02-17T04:48:22;14.77;;;10.05;;
60416;SDS011;46263;44.726;10.396;2023-02-17T04:50:49;15.02;;;9.55;;
60416;SDS011;46263;44.726;10.396;2023-02-17T04:53:15;18.15;;;9.80;;
60416;SDS011;46263;44.726;10.396;2023-02-17T04:55:41;14.38;;;9.20;;
60416;SDS011;46263;44.726;10.396;2023-02-17T04:58:07;13.95;;;9.75;;
60416;SDS011;46263;44.726;10.396;2023-02-17T05:00:33;16.02;;;9.02;;
60416;SDS011;46263;44.726;10.396;2023-02-17T05:02:59;16.98;;;8.95;;
60416;SDS011;46263;44.726;10.396;2023-02-17T05:05:25;14.43;;;9.30;;
60416;SDS011;46263;44.726;10.396;2023-02-17T05:07:50;13.88;;;9.25;;
60416;SDS011;46263;44.726;10.396;2023-02-17T05:10:16;13.38;;;8.88;;
60416;SDS011;46263;44.726;10.396;2023-02-17T05:12:42;15.35;;;9.10;;
60416;SDS011;46263;44.726;10.396;2023-02-17T05:15:09;15.20;;;9.25;;
60416;SDS011;46263;44.726;10.396;2023-02-17T05:17:36;13.75;;;9.30;;
60416;SDS011;46263;44.726;10.396;2023-02-17T05:20:03;13.50;;;9.02;;
60416;SDS011;46263;44.726;10.396;2023-02-17T05:22:29;17.60;;;9.23;;
60416;SDS011;46263;44.726;10.396;2023-02-17T05:24:55;13.40;;;8.13;;
60416;SDS011;46263;44.726;10.396;2023-02-17T05:27:21;16.55;;;9.50;;
60416;SDS011;46263;44.726;10.396;2023-02-17T05:29:47;14.07;;;8.85;;
60416;SDS011;46263;44.726;10.396;2023-02-17T05:32:12;16.40;;;8.60;;
60416;SDS011;46263;44.726;10.396;2023-02-17T05:34:38;15.70;;;8.90;;
60416;SDS011;46263;44.726;10.396;2023-02-17T05:37:04;16.23;;;9.23;;
60416;SDS011;46263;44.726;10.396;2023-02-17T05:39:29;14.60;;;9.40;;
60416;SDS011;46263;44.726;10.396;2023-02-17T05:41:55;12.95;;;9.13;;
60416;SDS011;46263;44.726;10.396;2023-02-17T05:44:21;17.60;;;9.30;;
60416;SDS011;46263;44.726;10.396;2023-02-17T05:46:46;13.57;;;8.98;;
60416;SDS011;46263;44.726;10.396;2023-02-17T05:49:12;11.35;;;7.90;;
60416;SDS011;46263;44.726;10.396;2023-02-17T05:51:38;9.45;;;7.32;;
60416;SDS011;46263;44.726;10.396;2023-02-17T05:54:03;10.82;;;8.13;;
60416;SDS011;46263;44.726;10.396;2023-02-17T05:56:29;10.45;;;7.13;;
60416;SDS011;46263;44.726;10.396;2023-02-17T05:58:55;10.02;;;7.18;;
60416;SDS011;46263;44.726;10.396;2023-02-17T06:01:20;11.40;;;8.10;;
60416;SDS011;46263;44.726;10.396;2023-02-17T06:03:46;12.45;;;7.93;;
60416;SDS011;46263;44.726;10.396;2023-02-17T06:06:12;10.68;;;7.40;;
60416;SDS011;46263;44.726;10.396;2023-02-17T06:08:38;11.02;;;7.13;;
60416;SDS011;46263;44.726;10.396;2023-02-17T06:11:04;9.88;;;7.10;;
60416;SDS011;46263;44.726;10.396;2023-02-17T06:13:29;11.75;;;7.22;;
60416;SDS011;46263;44.726;10.396;2023-02-17T06:15:55;10.20;;;7.55;;
60416;SDS011;46263;44.726;10.396;2023-02-17T06:18:20;15.02;;;8.18;;
60416;SDS011;46263;44.726;10.396;2023-02-17T06:20:46;14.10;;;8.50;;
60416;SDS011;46263;44.726;10.396;2023-02-17T06:23:12;10.25;;;7.65;;
60416;SDS011;46263;44.726;10.396;2023-02-17T06:25:37;12.55;;;7.38;;
60416;SDS011;46263;44.726;10.396;2023-02-17T06:28:03;14.77;;;8.35;;
60416;SDS011;46263;44.726;10.396;2023-02-17T06:30:29;11.52;;;7.57;;
60416;SDS011;46263;44.726;10.396;2023-02-17T06:32:55;11.65;;;7.40;;
60416;SDS011;46263;44.726;10.396;2023-02-17T06:35:21;11.23;;;7.60;;
60416;SDS011;46263;44.726;10.396;2023-02-17T06:37:47;12.55;;;8.15;;
60416;SDS011;46263;44.726;10.396;2023-02-17T06:40:13;13.43;;;7.97;;
60416;SDS011;46263;44.726;10.396;2023-02-17T06:42:38;11.57;;;7.70;;
60416;SDS011;46263;44.726;10.396;2023-02-17T06:45:04;13.10;;;8.18;;
60416;SDS011;46263;44.726;10.396;2023-02-17T06:47:31;13.75;;;8.00;;
60416;SDS011;46263;44.726;10.396;2023-02-17T06:49:57;12.70;;;7.93;;
60416;SDS011;46263;44.726;10.396;2023-02-17T06:52:23;12.48;;;7.32;;
60416;SDS011;46263;44.726;10.396;2023-02-17T06:54:48;10.90;;;6.78;;
60416;SDS011;46263;44.726;10.396;2023-02-17T06:57:14;11.23;;;7.45;;
60416;SDS011;46263;44.726;10.396;2023-02-17T06:59:40;11.60;;;7.90;;
60416;SDS011;46263;44.726;10.396;2023-02-17T07:02:05;12.13;;;7.43;;
60416;SDS011;46263;44.726;10.396;2023-02-17T07:04:32;12.95;;;7.07;;
60416;SDS011;46263;44.726;10.396;2023-02-17T07:06:57;17.77;;;7.85;;
60416;SDS011;46263;44.726;10.396;2023-02-17T07:09:23;12.27;;;7.30;;
60416;SDS011;46263;44.726;10.396;2023-02-17T07:11:48;10.50;;;7.38;;
60416;SDS011;46263;44.726;10.396;2023-02-17T07:14:15;15.93;;;7.35;;
60416;SDS011;46263;44.726;10.396;2023-02-17T07:16:41;12.45;;;7.32;;
60416;SDS011;46263;44.726;10.396;2023-02-17T07:19:06;10.68;;;7.38;;
60416;SDS011;46263;44.726;10.396;2023-02-17T07:21:32;15.52;;;7.28;;
60416;SDS011;46263;44.726;10.396;2023-02-17T07:23:57;10.63;;;7.20;;
60416;SDS011;46263;44.726;10.396;2023-02-17T07:26:23;9.38;;;6.72;;
60416;SDS011;46263;44.726;10.396;2023-02-17T07:28:49;12.35;;;7.05;;
60416;SDS011;46263;44.726;10.396;2023-02-17T07:31:15;8.88;;;6.47;;
60416;SDS011;46263;44.726;10.396;2023-02-17T07:33:41;10.98;;;6.38;;
60416;SDS011;46263;44.726;10.396;2023-02-17T07:36:08;9.93;;;6.00;;
60416;SDS011;46263;44.726;10.396;2023-02-17T07:38:36;11.43;;;5.82;;
60416;SDS011;46263;44.726;10.396;2023-02-17T07:41:06;11.82;;;6.95;;
60416;SDS011;46263;44.726;10.396;2023-02-17T07:43:33;9.82;;;6.18;;
60416;SDS011;46263;44.726;10.396;2023-02-17T07:45:59;10.13;;;6.25;;
60416;SDS011;46263;44.726;10.396;2023-02-17T07:48:25;12.98;;;6.15;;
60416;SDS011;46263;44.726;10.396;2023-02-17T07:50:51;14.55;;;7.05;;
60416;SDS011;46263;44.726;10.396;2023-02-17T07:53:16;16.23;;;6.55;;
60416;SDS011;46263;44.726;10.396;2023-02-17T07:55:43;11.93;;;6.22;;
60416;SDS011;46263;44.726;10.396;2023-02-17T07:58:08;11.68;;;6.40;;
60416;SDS011;46263;44.726;10.396;2023-02-17T08:00:34;8.25;;;6.15;;
60416;SDS011;46263;44.726;10.396;2023-02-17T08:02:59;9.57;;;5.93;;
60416;SDS011;46263;44.726;10.396;2023-02-17T08:05:25;7.50;;;6.13;;
60416;SDS011;46263;44.726;10.396;2023-02-17T08:07:51;9.57;;;6.38;;
60416;SDS011;46263;44.726;10.396;2023-02-17T08:10:37;10.00;;;6.80;;
60416;SDS011;46263;44.726;10.396;2023-02-17T08:13:21;10.85;;;6.15;;
60416;SDS011;46263;44.726;10.396;2023-02-17T08:15:47;9.98;;;6.78;;
60416;SDS011;46263;44.726;10.396;2023-02-17T08:18:13;12.32;;;6.47;;
60416;SDS011;46263;44.726;10.396;2023-02-17T08:20:38;9.85;;;6.75;;
60416;SDS011;46263;44.726;10.396;2023-02-17T08:23:04;7.00;;;5.88;;
60416;SDS011;46263;44.726;10.396;2023-02-17T08:25:30;10.48;;;6.32;;
60416;SDS011;46263;44.726;10.396;2023-02-17T08:27:57;10.45;;;6.47;;
60416;SDS011;46263;44.726;10.396;2023-02-17T08:30:23;11.38;;;6.57;;
60416;SDS011;46263;44.726;10.396;2023-02-17T08:32:49;13.00;;;6.57;;
60416;SDS011;46263;44.726;10.396;2023-02-17T08:35:14;11.77;;;7.03;;
60416;SDS011;46263;44.726;10.396;2023-02-17T08:37:42;22.58;;;7.90;;
60416;SDS011;46263;44.726;10.396;2023-02-17T08:40:07;15.20;;;7.80;;
60416;SDS011;46263;44.726;10.396;2023-02-17T08:42:33;13.88;;;8.00;;
60416;SDS011;46263;44.726;10.396;2023-02-17T08:44:59;12.02;;;7.10;;
60416;SDS011;46263;44.726;10.396;2023-02-17T08:47:25;12.05;;;7.75;;
60416;SDS011;46263;44.726;10.396;2023-02-17T08:49:50;14.52;;;7.97;;
60416;SDS011;46263;44.726;10.396;2023-02-17T08:52:16;13.88;;;8.38;;
60416;SDS011;46263;44.726;10.396;2023-02-17T08:54:41;16.08;;;9.50;;
60416;SDS011;46263;44.726;10.396;2023-02-17T08:57:07;18.70;;;9.57;;
60416;SDS011;46263;44.726;10.396;2023-02-17T08:59:32;14.75;;;9.75;;
60416;SDS011;46263;44.726;10.396;2023-02-17T09:01:58;19.65;;;9.77;;
60416;SDS011;46263;44.726;10.396;2023-02-17T09:04:24;20.42;;;11.07;;
60416;SDS011;46263;44.726;10.396;2023-02-17T09:06:50;21.20;;;11.40;;
60416;SDS011;46263;44.726;10.396;2023-02-17T09:09:19;21.73;;;12.82;;
60416;SDS011;46263;44.726;10.396;2023-02-17T09:11:47;22.90;;;12.57;;
60416;SDS011;46263;44.726;10.396;2023-02-17T09:14:13;19.95;;;12.18;;
60416;SDS011;46263;44.726;10.396;2023-02-17T09:16:39;18.20;;;11.77;;
60416;SDS011;46263;44.726;10.396;2023-02-17T09:19:04;19.90;;;11.50;;
60416;SDS011;46263;44.726;10.396;2023-02-17T09:21:30;20.95;;;11.57;;
60416;SDS011;46263;44.726;10.396;2023-02-17T09:23:56;20.83;;;12.15;;
60416;SDS011;46263;44.726;10.396;2023-02-17T09:26:22;17.35;;;11.20;;
60416;SDS011;46263;44.726;10.396;2023-02-17T09:28:48;16.42;;;10.98;;
60416;SDS011;46263;44.726;10.396;2023-02-17T09:31:15;17.17;;;10.85;;
60416;SDS011;46263;44.726;10.396;2023-02-17T09:33:43;17.65;;;11.60;;
60416;SDS011;46263;44.726;10.396;2023-02-17T09:36:11;22.88;;;10.93;;
60416;SDS011;46263;44.726;10.396;2023-02-17T09:38:39;17.92;;;10.40;;
60416;SDS011;46263;44.726;10.396;2023-02-17T09:43:40;14.38;;;9.82;;
60416;SDS011;46263;44.726;10.396;2023-02-17T09:46:09;18.25;;;9.73;;
60416;SDS011;46263;44.726;10.396;2023-02-17T09:48:40;15.77;;;9.25;;
60416;SDS011;46263;44.726;10.396;2023-02-17T09:56:37;17.63;;;9.40;;
60416;SDS011;46263;44.726;10.396;2023-02-17T09:59:48;19.08;;;10.23;;
60416;SDS011;46263;44.726;10.396;2023-02-17T10:01:54;15.52;;;9.85;;
60416;SDS011;46263;44.726;10.396;2023-02-17T10:04:24;20.30;;;10.77;;
60416;SDS011;46263;44.726;10.396;2023-02-17T10:12:54;16.13;;;9.95;;
60416;SDS011;46263;44.726;10.396;2023-02-17T10:15:23;16.70;;;9.93;;
60416;SDS011;46263;44.726;10.396;2023-02-17T10:17:59;16.42;;;9.77;;
60416;SDS011;46263;44.726;10.396;2023-02-17T10:23:16;15.25;;;10.15;;
60416;SDS011;46263;44.726;10.396;2023-02-17T10:29:23;16.35;;;10.32;;
60416;SDS011;46263;44.726;10.396;2023-02-17T10:37:14;18.98;;;11.13;;
60416;SDS011;46263;44.726;10.396;2023-02-17T10:39:49;18.00;;;10.45;;
60416;SDS011;46263;44.726;10.396;2023-02-17T10:44:46;18.05;;;10.60;;
60416;SDS011;46263;44.726;10.396;2023-02-17T10:47:13;20.83;;;11.35;;
60416;SDS011;46263;44.726;10.396;2023-02-17T10:49:41;17.20;;;11.07;;
60416;SDS011;46263;44.726;10.396;2023-02-17T10:52:18;13.00;;;9.80;;
60416;SDS011;46263;44.726;10.396;2023-02-17T10:54:51;17.30;;;11.00;;
60416;SDS011;46263;44.726;10.396;2023-02-17T10:57:24;15.40;;;10.93;;
60416;SDS011;46263;44.726;10.396;2023-02-17T10:59:56;17.47;;;11.00;;
60416;SDS011;46263;44.726;10.396;2023-02-17T11:04:57;16.92;;;11.35;;
60416;SDS011;46263;44.726;10.396;2023-02-17T11:07:40;16.00;;;11.13;;
60416;SDS011;46263;44.726;10.396;2023-02-17T11:13:25;16.75;;;11.45;;
60416;SDS011;46263;44.726;10.396;2023-02-17T11:16:02;17.02;;;11.15;;
60416;SDS011;46263;44.726;10.396;2023-02-17T11:18:33;16.13;;;10.80;;
60416;SDS011;46263;44.726;10.396;2023-02-17T11:21:08;15.18;;;10.85;;
60416;SDS011;46263;44.726;10.396;2023-02-17T11:23:45;17.43;;;11.03;;
60416;SDS011;46263;44.726;10.396;2023-02-17T11:26:25;14.63;;;9.75;;
60416;SDS011;46263;44.726;10.396;2023-02-17T11:28:53;14.02;;;9.93;;
60416;SDS011;46263;44.726;10.396;2023-02-17T11:31:23;18.40;;;11.48;;
60416;SDS011;46263;44.726;10.396;2023-02-17T11:33:53;18.70;;;11.40;;
60416;SDS011;46263;44.726;10.396;2023-02-17T11:36:27;15.18;;;10.07;;
60416;SDS011;46263;44.726;10.396;2023-02-17T11:38:54;16.13;;;10.18;;
60416;SDS011;46263;44.726;10.396;2023-02-17T11:41:21;15.25;;;10.65;;
60416;SDS011;46263;44.726;10.396;2023-02-17T11:43:54;17.35;;;11.25;;
60416;SDS011;46263;44.726;10.396;2023-02-17T11:58:36;14.88;;;10.63;;
60416;SDS011;46263;44.726;10.396;2023-02-17T12:06:36;13.63;;;9.32;;
60416;SDS011;46263;44.726;10.396;2023-02-17T12:20:30;14.60;;;10.48;;
60416;SDS011;46263;44.726;10.396;2023-02-17T12:26:15;16.35;;;10.60;;
60416;SDS011;46263;44.726;10.396;2023-02-17T12:31:47;14.85;;;8.88;;
60416;SDS011;46263;44.726;10.396;2023-02-17T12:34:46;14.13;;;10.65;;
60416;SDS011;46263;44.726;10.396;2023-02-17T12:37:20;14.13;;;10.60;;
60416;SDS011;46263;44.726;10.396;2023-02-17T12:39:55;14.32;;;9.32;;
60416;SDS011;46263;44.726;10.396;2023-02-17T12:42:32;14.40;;;10.27;;
60416;SDS011;46263;44.726;10.396;2023-02-17T12:45:06;14.13;;;9.43;;
60416;SDS011;46263;44.726;10.396;2023-02-17T12:48:03;14.48;;;9.13;;
60416;SDS011;46263;44.726;10.396;2023-02-17T12:50:40;15.75;;;9.63;;
60416;SDS011;46263;44.726;10.396;2023-02-17T12:53:17;13.60;;;10.13;;
60416;SDS011;46263;44.726;10.396;2023-02-17T12:55:58;15.13;;;9.80;;
60416;SDS011;46263;44.726;10.396;2023-02-17T12:58:29;12.15;;;9.63;;
60416;SDS011;46263;44.726;10.396;2023-02-17T13:01:12;12.73;;;10.20;;
60416;SDS011;46263;44.726;10.396;2023-02-17T13:03:42;17.88;;;11.25;;
60416;SDS011;46263;44.726;10.396;2023-02-17T13:06:14;15.13;;;10.30;;
60416;SDS011;46263;44.726;10.396;2023-02-17T13:08:59;14.85;;;11.02;;
60416;SDS011;46263;44.726;10.396;2023-02-17T13:11:32;17.08;;;11.27;;
60416;SDS011;46263;44.726;10.396;2023-02-17T13:17:24;16.63;;;11.68;;
60416;SDS011;46263;44.726;10.396;2023-02-17T13:22:35;15.13;;;10.82;;
60416;SDS011;46263;44.726;10.396;2023-02-17T13:25:02;14.27;;;11.15;;
60416;SDS011;46263;44.726;10.396;2023-02-17T13:30:43;14.70;;;10.88;;
60416;SDS011;46263;44.726;10.396;2023-02-17T13:32:42;20.38;;;11.00;;
60416;SDS011;46263;44.726;10.396;2023-02-17T13:37:41;17.30;;;12.25;;
60416;SDS011;46263;44.726;10.396;2023-02-17T13:40:41;16.42;;;10.60;;
60416;SDS011;46263;44.726;10.396;2023-02-17T13:43:17;16.83;;;11.40;;
60416;SDS011;46263;44.726;10.396;2023-02-17T13:48:31;17.17;;;11.15;;
60416;SDS011;46263;44.726;10.396;2023-02-17T13:55:59;14.80;;;10.82;;
60416;SDS011;46263;44.726;10.396;2023-02-17T13:58:28;17.27;;;12.10;;
60416;SDS011;46263;44.726;10.396;2023-02-17T14:00:56;15.73;;;10.95;;
60416;SDS011;46263;44.726;10.396;2023-02-17T14:03:24;19.25;;;12.23;;
60416;SDS011;46263;44.726;10.396;2023-02-17T14:05:54;18.60;;;11.82;;
60416;SDS011;46263;44.726;10.396;2023-02-17T14:08:25;17.50;;;12.15;;
60416;SDS011;46263;44.726;10.396;2023-02-17T14:10:52;15.88;;;10.90;;
60416;SDS011;46263;44.726;10.396;2023-02-17T14:13:19;23.52;;;13.65;;
60416;SDS011;46263;44.726;10.396;2023-02-17T14:15:50;17.85;;;11.38;;
60416;SDS011;46263;44.726;10.396;2023-02-17T14:18:38;17.90;;;12.00;;
60416;SDS011;46263;44.726;10.396;2023-02-17T14:21:07;17.77;;;12.68;;
60416;SDS011;46263;44.726;10.396;2023-02-17T14:23:48;23.08;;;13.95;;
60416;SDS011;46263;44.726;10.396;2023-02-17T14:26:38;16.42;;;11.60;;
60416;SDS011;46263;44.726;10.396;2023-02-17T14:29:06;16.92;;;11.77;;
60416;SDS011;46263;44.726;10.396;2023-02-17T14:31:44;18.77;;;11.07;;
60416;SDS011;46263;44.726;10.396;2023-02-17T14:34:13;17.65;;;11.48;;
60416;SDS011;46263;44.726;10.396;2023-02-17T14:36:53;18.70;;;11.27;;
60416;SDS011;46263;44.726;10.396;2023-02-17T14:39:19;18.25;;;12.23;;
60416;SDS011;46263;44.726;10.396;2023-02-17T14:41:45;14.63;;;11.20;;
60416;SDS011;46263;44.726;10.396;2023-02-17T14:44:10;16.77;;;11.52;;
60416;SDS011;46263;44.726;10.396;2023-02-17T14:46:36;16.73;;;11.75;;
60416;SDS011;46263;44.726;10.396;2023-02-17T14:49:02;16.40;;;11.52;;
60416;SDS011;46263;44.726;10.396;2023-02-17T14:51:35;20.42;;;12.35;;
60416;SDS011;46263;44.726;10.396;2023-02-17T14:56:34;17.80;;;12.55;;
60416;SDS011;46263;44.726;10.396;2023-02-17T14:59:02;19.40;;;11.80;;
60416;SDS011;46263;44.726;10.396;2023-02-17T15:01:28;24.77;;;14.55;;
60416;SDS011;46263;44.726;10.396;2023-02-17T15:03:54;25.00;;;16.10;;
60416;SDS011;46263;44.726;10.396;2023-02-17T15:06:23;22.25;;;14.63;;
60416;SDS011;46263;44.726;10.396;2023-02-17T15:08:51;24.10;;;14.35;;
60416;SDS011;46263;44.726;10.396;2023-02-17T15:13:55;18.75;;;12.80;;
60416;SDS011;46263;44.726;10.396;2023-02-17T15:16:20;20.42;;;13.10;;
60416;SDS011;46263;44.726;10.396;2023-02-17T15:18:46;19.80;;;12.75;;
60416;SDS011;46263;44.726;10.396;2023-02-17T15:21:23;24.77;;;13.20;;
60416;SDS011;46263;44.726;10.396;2023-02-17T15:23:49;21.48;;;12.85;;
60416;SDS011;46263;44.726;10.396;2023-02-17T15:26:14;20.30;;;13.70;;
60416;SDS011;46263;44.726;10.396;2023-02-17T15:28:40;18.52;;;12.70;;
60416;SDS011;46263;44.726;10.396;2023-02-17T15:31:05;19.88;;;13.00;;
60416;SDS011;46263;44.726;10.396;2023-02-17T15:33:31;18.58;;;13.02;;
60416;SDS011;46263;44.726;10.396;2023-02-17T15:35:57;16.83;;;11.88;;
60416;SDS011;46263;44.726;10.396;2023-02-17T15:38:23;18.35;;;11.38;;
60416;SDS011;46263;44.726;10.396;2023-02-17T15:40:49;19.92;;;12.00;;
60416;SDS011;46263;44.726;10.396;2023-02-17T15:43:16;19.23;;;12.27;;
60416;SDS011;46263;44.726;10.396;2023-02-17T15:45:44;24.35;;;12.90;;
60416;SDS011;46263;44.726;10.396;2023-02-17T15:48:11;19.17;;;12.88;;
60416;SDS011;46263;44.726;10.396;2023-02-17T15:50:44;18.23;;;12.25;;
60416;SDS011;46263;44.726;10.396;2023-02-17T15:53:10;18.50;;;12.23;;
60416;SDS011;46263;44.726;10.396;2023-02-17T15:55:36;20.50;;;12.63;;
60416;SDS011;46263;44.726;10.396;2023-02-17T15:58:03;18.35;;;12.15;;
60416;SDS011;46263;44.726;10.396;2023-02-17T16:00:34;20.05;;;12.18;;
60416;SDS011;46263;44.726;10.396;2023-02-17T16:03:00;19.67;;;12.50;;
60416;SDS011;46263;44.726;10.396;2023-02-17T16:05:27;21.90;;;14.02;;
60416;SDS011;46263;44.726;10.396;2023-02-17T16:07:53;21.85;;;14.27;;
60416;SDS011;46263;44.726;10.396;2023-02-17T16:10:20;30.67;;;14.32;;
60416;SDS011;46263;44.726;10.396;2023-02-17T16:12:48;22.10;;;14.63;;
60416;SDS011;46263;44.726;10.396;2023-02-17T16:15:19;23.90;;;14.38;;
60416;SDS011;46263;44.726;10.396;2023-02-17T16:17:46;22.77;;;14.90;;
60416;SDS011;46263;44.726;10.396;2023-02-17T16:20:16;22.98;;;15.30;;
60416;SDS011;46263;44.726;10.396;2023-02-17T16:22:50;21.27;;;14.63;;
60416;SDS011;46263;44.726;10.396;2023-02-17T16:25:17;23.73;;;14.27;;